createdAt,value
2023-09-09T00:01:04.910Z,100.00
2023-09-09T00:06:13.372Z,100.00
2023-09-09T00:11:15.760Z,100.00
2023-09-09T00:16:17.981Z,100.00
2023-09-09T00:21:20.170Z,100.00
2023-09-09T00:26:22.286Z,100.00
2023-09-09T00:31:25.287Z,100.00
2023-09-09T00:36:27.346Z,100.00
2023-09-09T00:41:29.216Z,100.00
2023-09-09T00:46:31.676Z,100.00
2023-09-09T00:51:35.002Z,100.00
2023-09-09T00:56:37.129Z,100.00
2023-09-09T01:01:39.336Z,100.00
2023-09-09T01:06:42.030Z,100.00
2023-09-09T01:11:44.199Z,100.00
2023-09-09T01:16:50.071Z,100.00
2023-09-09T01:21:56.153Z,100.00
2023-09-09T01:26:59.078Z,100.00
2023-09-09T01:32:01.241Z,100.00
2023-09-09T01:37:04.100Z,100.00
2023-09-09T01:42:06.756Z,100.00
2023-09-09T01:47:11.261Z,100.00
2023-09-09T01:52:13.793Z,100.00
2023-09-09T01:57:17.799Z,100.00
2023-09-09T02:02:20.348Z,100.00
2023-09-09T02:07:22.599Z,100.00
2023-09-09T02:12:25.440Z,100.00
2023-09-09T02:17:27.811Z,100.00
2023-09-09T02:22:32.045Z,100.00
2023-09-09T02:27:36.347Z,100.00
2023-09-09T02:32:39.527Z,100.00
2023-09-09T02:37:41.901Z,100.00
2023-09-09T02:42:45.319Z,100.00
2023-09-09T02:47:47.582Z,100.00
2023-09-09T02:52:51.435Z,100.00
2023-09-09T02:57:53.623Z,100.00
2023-09-09T03:02:56.701Z,100.00
2023-09-09T03:07:59.261Z,100.00
2023-09-09T03:13:03.353Z,100.00
2023-09-09T03:18:05.558Z,100.00
2023-09-09T03:23:08.405Z,100.00
2023-09-09T03:28:10.307Z,100.00
2023-09-09T03:33:13.139Z,100.00
2023-09-09T03:38:15.581Z,100.00
2023-09-09T03:43:17.749Z,100.00
2023-09-09T03:48:21.363Z,100.00
2023-09-09T03:53:23.564Z,100.00
2023-09-09T03:58:26.019Z,100.00
2023-09-09T04:03:29.913Z,100.00
2023-09-09T04:08:32.628Z,100.00
2023-09-09T04:13:39.574Z,100.00
2023-09-09T04:18:46.865Z,100.00
2023-09-09T04:23:54.363Z,100.00
2023-09-09T04:28:56.718Z,100.00
2023-09-09T04:33:59.007Z,100.00
2023-09-09T04:39:01.661Z,100.00
2023-09-09T04:44:03.876Z,100.00
2023-09-09T04:49:06.459Z,100.00
2023-09-09T04:54:08.780Z,100.00
2023-09-09T04:59:11.280Z,100.00
2023-09-09T05:04:14.025Z,100.00
2023-09-09T05:09:16.296Z,100.00
2023-09-09T05:14:18.457Z,100.00
2023-09-09T05:19:20.791Z,100.00
2023-09-09T05:24:23.111Z,100.00
2023-09-09T05:29:25.147Z,100.00
2023-09-09T05:34:27.516Z,100.00
2023-09-09T05:39:29.919Z,100.00
2023-09-09T05:44:32.255Z,100.00
2023-09-09T05:49:39.356Z,100.00
2023-09-09T05:54:45.785Z,100.00
2023-09-09T05:59:48.141Z,100.00
2023-09-09T06:04:52.008Z,100.00
2023-09-09T06:09:54.393Z,100.00
2023-09-09T06:14:58.326Z,100.00
2023-09-09T06:20:01.849Z,100.00
2023-09-09T06:25:05.913Z,100.00
2023-09-09T06:30:09.283Z,100.00
2023-09-09T06:35:12.268Z,100.00
2023-09-09T06:40:14.390Z,100.00
2023-09-09T06:45:19.136Z,100.00
2023-09-09T06:50:21.775Z,100.00
2023-09-09T06:55:23.894Z,100.00
2023-09-09T07:00:25.912Z,100.00
2023-09-09T07:05:28.729Z,100.00
2023-09-09T07:10:31.822Z,100.00
2023-09-09T07:15:36.829Z,99.79
2023-09-09T07:20:39.744Z,98.49
2023-09-09T07:25:44.541Z,96.90
2023-09-09T07:30:47.081Z,97.19
2023-09-09T07:35:53.865Z,96.93
2023-09-09T07:41:00.353Z,93.67
2023-09-09T07:46:02.529Z,91.06
2023-09-09T07:51:04.594Z,90.48
2023-09-09T07:56:06.623Z,88.60
2023-09-09T08:01:09.504Z,86.30
2023-09-09T08:06:11.596Z,85.17
2023-09-09T08:11:13.869Z,85.26
2023-09-09T08:16:16.114Z,84.43
2023-09-09T08:21:18.305Z,82.98
2023-09-09T08:26:20.462Z,81.00
2023-09-09T08:31:23.083Z,80.19
2023-09-09T08:36:26.746Z,79.80
2023-09-09T08:41:37.935Z,77.73
2023-09-09T08:46:40.124Z,73.83
2023-09-09T08:51:53.399Z,74.08
2023-09-09T08:56:57.604Z,75.28
2023-09-09T09:01:59.993Z,74.46
2023-09-09T09:07:02.709Z,74.27
2023-09-09T09:12:07.305Z,73.87
2023-09-09T09:17:10.135Z,71.39
2023-09-09T09:22:15.819Z,68.45
2023-09-09T09:27:18.163Z,67.26
2023-09-09T09:32:20.992Z,65.31
2023-09-09T09:37:27.864Z,62.74
2023-09-09T09:42:30.106Z,59.86
2023-09-09T09:47:43.565Z,60.33
2023-09-09T09:52:58.609Z,58.41
2023-09-09T09:58:11.164Z,60.40
2023-09-09T10:03:15.437Z,59.28
2023-09-09T10:08:37.646Z,56.45
2023-09-09T10:13:48.493Z,52.44
2023-09-09T10:18:53.680Z,51.85
2023-09-09T10:23:56.137Z,51.36
2023-09-09T10:29:00.521Z,52.60
2023-09-09T10:34:04.028Z,50.88
2023-09-09T10:39:07.504Z,50.79
2023-09-09T10:44:09.980Z,50.81
2023-09-09T10:49:15.496Z,49.44
2023-09-09T10:54:21.641Z,49.42
2023-09-09T10:59:29.725Z,48.49
2023-09-09T11:04:31.872Z,51.40
2023-09-09T11:09:34.588Z,49.19
2023-09-09T11:14:38.110Z,54.91
2023-09-09T11:19:42.425Z,57.18
2023-09-09T11:24:44.746Z,58.32
2023-09-09T11:29:53.819Z,56.15
2023-09-09T11:34:57.345Z,56.79
2023-09-09T11:40:00.552Z,57.59
2023-09-09T11:45:03.955Z,55.31
2023-09-09T11:50:08.798Z,59.13
2023-09-09T11:55:17.196Z,57.44
2023-09-09T12:00:23.301Z,56.11
2023-09-09T12:05:32.018Z,53.33
2023-09-09T12:10:36.709Z,52.85
2023-09-09T12:15:39.221Z,51.41
2023-09-09T12:21:04.980Z,53.38
2023-09-09T12:26:14.911Z,52.39
2023-09-09T12:31:17.105Z,52.21
2023-09-09T12:36:22.089Z,55.03
2023-09-09T12:41:24.471Z,52.71
2023-09-09T12:46:28.927Z,52.13
2023-09-09T12:51:34.106Z,51.52
2023-09-09T12:56:36.448Z,49.65
2023-09-09T13:01:38.563Z,52.76
2023-09-09T13:06:41.019Z,49.83
2023-09-09T13:11:43.631Z,49.23
2023-09-09T13:16:46.729Z,48.87
2023-09-09T13:21:49.681Z,47.07
2023-09-09T13:26:51.784Z,49.25
2023-09-09T13:31:54.361Z,47.98
2023-09-09T13:36:57.063Z,48.60
2023-09-09T13:41:59.515Z,49.62
2023-09-09T13:47:01.745Z,51.42
2023-09-09T13:52:03.747Z,49.71
2023-09-09T13:57:07.370Z,50.07
2023-09-09T14:02:09.670Z,52.25
2023-09-09T14:07:11.882Z,49.92
2023-09-09T14:12:14.015Z,51.52
2023-09-09T14:17:16.507Z,50.13
2023-09-09T14:22:18.633Z,49.31
2023-09-09T14:27:20.927Z,50.90
2023-09-09T14:32:23.288Z,47.67
2023-09-09T14:37:25.508Z,48.59
2023-09-09T14:42:27.733Z,48.99
2023-09-09T14:47:29.833Z,49.73
2023-09-09T14:52:32.109Z,47.97
2023-09-09T14:57:34.211Z,48.57
2023-09-09T15:02:36.723Z,48.44
2023-09-09T15:07:39.580Z,47.91
2023-09-09T15:12:41.642Z,47.79
2023-09-09T15:17:44.588Z,45.25
2023-09-09T15:22:48.193Z,45.90
2023-09-09T15:27:50.480Z,47.70
2023-09-09T15:32:53.824Z,51.96
2023-09-09T15:37:56.283Z,52.16
2023-09-09T15:42:58.559Z,52.13
2023-09-09T15:48:03.324Z,52.87
2023-09-09T15:53:05.422Z,52.46
2023-09-09T15:58:07.501Z,52.12
2023-09-09T16:03:10.663Z,52.46
2023-09-09T16:08:12.947Z,53.54
2023-09-09T16:13:16.158Z,54.15
2023-09-09T16:18:18.844Z,55.15
2023-09-09T16:23:21.349Z,54.29
2023-09-09T16:28:24.104Z,54.13
2023-09-09T16:33:26.353Z,53.90
2023-09-09T16:38:28.530Z,54.98
2023-09-09T16:43:30.681Z,54.52
2023-09-09T16:48:32.986Z,54.36
2023-09-09T16:53:35.172Z,54.84
2023-09-09T16:58:37.528Z,55.24
2023-09-09T17:03:40.914Z,55.48
2023-09-09T17:08:43.298Z,58.53
2023-09-09T17:13:45.363Z,56.63
2023-09-09T17:18:48.970Z,57.38
2023-09-09T17:23:51.285Z,58.58
2023-09-09T17:28:53.676Z,57.17
2023-09-09T17:33:56.242Z,57.69
2023-09-09T17:39:10.417Z,56.88
2023-09-09T17:44:13.199Z,56.17
2023-09-09T17:49:15.381Z,54.26
2023-09-09T17:54:17.762Z,55.54
2023-09-09T17:59:20.083Z,54.19
2023-09-09T18:04:22.207Z,52.46
2023-09-09T18:09:24.201Z,54.08
2023-09-09T18:14:26.134Z,56.64
2023-09-09T18:19:28.591Z,56.49
2023-09-09T18:24:31.580Z,58.60
2023-09-09T18:29:33.509Z,58.82
2023-09-09T18:34:36.177Z,58.22
2023-09-09T18:39:40.951Z,58.94
2023-09-09T18:44:43.382Z,58.60
2023-09-09T18:49:45.658Z,58.55
2023-09-09T18:54:47.999Z,59.17
2023-09-09T18:59:49.875Z,59.90
2023-09-09T19:04:52.503Z,59.06
2023-09-09T19:09:54.810Z,60.15
2023-09-09T19:14:57.672Z,60.48
2023-09-09T19:20:02.453Z,61.01
2023-09-09T19:25:06.472Z,61.18
2023-09-09T19:30:09.367Z,60.92
2023-09-09T19:35:11.332Z,61.46
2023-09-09T19:40:13.609Z,62.59
2023-09-09T19:45:15.665Z,63.02
2023-09-09T19:50:19.073Z,63.21
2023-09-09T19:55:21.150Z,63.47
2023-09-09T20:00:23.795Z,63.69
2023-09-09T20:05:25.868Z,64.74
2023-09-09T20:10:29.046Z,69.33
2023-09-09T20:15:31.315Z,73.03
2023-09-09T20:20:33.584Z,74.94
2023-09-09T20:25:35.866Z,73.57
2023-09-09T20:30:38.034Z,89.66
2023-09-09T20:35:40.836Z,94.27
2023-09-09T20:40:44.306Z,100.00
2023-09-09T20:45:46.631Z,100.00
2023-09-09T20:50:48.892Z,100.00
2023-09-09T20:55:52.543Z,100.00
2023-09-09T21:00:57.810Z,100.00
2023-09-09T21:05:59.997Z,100.00
2023-09-09T21:11:02.635Z,100.00
2023-09-09T21:16:05.105Z,100.00
2023-09-09T21:21:07.601Z,100.00
2023-09-09T21:26:09.960Z,100.00
2023-09-09T21:31:12.225Z,100.00
2023-09-09T21:36:14.459Z,100.00
2023-09-09T21:41:16.750Z,100.00
2023-09-09T21:46:19.234Z,100.00
2023-09-09T21:51:21.418Z,100.00
2023-09-09T21:56:23.612Z,100.00
2023-09-09T22:01:25.642Z,100.00
2023-09-09T22:06:28.049Z,100.00
2023-09-09T22:11:31.782Z,100.00
2023-09-09T22:16:34.048Z,100.00
2023-09-09T22:21:36.353Z,100.00
2023-09-09T22:26:38.408Z,100.00
2023-09-09T22:31:40.475Z,100.00
2023-09-09T22:36:42.775Z,100.00
2023-09-09T22:41:45.683Z,100.00
2023-09-09T22:46:48.194Z,100.00
2023-09-09T22:51:50.466Z,100.00
2023-09-09T22:56:52.551Z,100.00
2023-09-09T23:01:54.877Z,100.00
2023-09-09T23:06:56.938Z,100.00
2023-09-09T23:12:03.419Z,100.00
2023-09-09T23:17:07.334Z,100.00
2023-09-09T23:22:09.321Z,100.00
2023-09-09T23:27:11.509Z,100.00
2023-09-09T23:32:13.876Z,100.00
2023-09-09T23:37:16.200Z,100.00
2023-09-09T23:42:18.725Z,100.00
2023-09-09T23:47:20.966Z,100.00
2023-09-09T23:52:23.524Z,100.00
2023-09-09T23:57:25.898Z,100.00
